RELACIONES PÚBLICAS

23/03/2017DÍA METEOROLÓGICO MUNDIAL 2017   Cada 23 de marzo la Organización Meteorológica Mundial (OMM) celebra la entrada en vigencia del Convenio mediante el cual fue creado, en 1950. Este día es conocido como el Día Meteorológico Mundial, y en él se celebra y destaca la importancia que los Servicios Meteorológicos e Hidrológicos Nacionales tienen en cada país, puesto que contribuyen al mantenimiento de la seguridad y el bienestar general. A su vez, a cada Día Meteorológico Mundial se le asigna un tema específico. Este año el tema elegido es " Entendiendo las nubes"; con el fin de resaltar la enorme importancia que revisten las nubes para el tiempo, el clima y el agua.https://www.youtube.com/watch?v=BazVcoxsscw&feature=youtu.behttps://public.wmo.int/es/D%C3%ADa-Meteorol%C3%B3gico-Mundial-2017

Productos aeronáuticos

  • SIGMET
  • METAR / SPECI
  • TAF
  • AIREP
  • Aviso de aeródromo
  • Pronárea
  • Carta superficie

Mensajes METAR de la última hora

SUAA 261400Z 06015KT 9999 FEW023 OVC200 24/18 Q1017
SUCA 261400Z 05016KT 9999 SCT008 BKN200 24/18 Q1014
SUDU 261400Z 06012KT 9999 BKN020 25/18 Q1017
SULS 261400Z 06013KT 9999 BKN020 24/18 Q1018
SUMU 261400Z 07011KT 9999 FEW023 BKN200 24/18 Q1017 NOSIG

Mensajes METAR de la última hora - Internacionales


Argentina
SACO 261424Z 05020G32KT 9999 -TSRA FEW020 FEW034CB SCT040 20/16 Q1009
SAAR 261400Z 05011KT CAVOK 24/21 Q1012
SABE 261400Z 05011KT 9999 BKN015 23/19 Q1015
SACO 261400Z 02010KT 9999 -TSRA FEW020 FEW034CB SCT040 20/16 Q1013
SAEZ 261400Z 06015KT 9999 BKN017 OVC200 23/19 Q1015
SAME 261400Z 32006KT 9999 FEW040 24/15 Q1012
Bolivia
SLCP 261400Z 34010KT 9999 BKN013 27/25 Q1016
SLLP 261400Z 13004KT 9999 FEW014 SCT200 11/04 Q1038
Brasil
SBBR 261400Z 11007KT 9999 FEW025 27/17 Q1019
SBFI 261400Z 06004KT 9999 FEW030 BKN100 23/21 Q1014
SBFL 261400Z 17004KT 9999 BKN023 26/19 Q1017
SBGR 261400Z 14005KT 9999 BKN030 24/17 Q1019
SBPA 261400Z 08013KT 9999 BKN025 27/20 Q1017
SBRJ 261400Z 11005KT 9999 SCT020 30/22 Q1014
SBSP 261400Z 17007KT 9999 BKN026 23/15 Q1019
Colombia
SKBO 261400Z 30004KT 9999 SCT020 BKN080 15/10 A3039
Chile
SCCI 261400Z 04006KT 9999 FEW008 OVC027 09/06 Q1018 NOSIG
SCEL 261400Z 33003KT 270V360 8000 NSC 17/09 Q1017 NOSIG
Ecuador
SEQM 261400Z 22003KT 9999 FEW006 SCT016 BKN070 14/12 Q1029 NOSIG RMK A3039
EEUU
KDCA 261452Z 08010KT 10SM OVC010 09/07 A3035 RMK AO2 SLP278 T00890072 51011
KIAD 261452Z 11006KT 10SM OVC011 09/06 A3034 RMK AO2 SLP272 T00890056 51013
KJFK 261451Z 07010KT 10SM OVC015 05/02 A3048 RMK AO2 SLP321 T00500022 53009
KLGA 261451Z 05012KT 10SM BKN018 OVC032 05/00 A3047 RMK AO2 SLP319 T00500000 53010
KLGA 261447Z 06012KT 10SM BKN018 OVC032 05/00 A3047 RMK AO2
España
LEBL 261430Z 21009KT 170V230 9999 FEW025 16/09 Q1018 NOSIG
LEMD 261430Z 14011KT 100V170 9999 FEW035 BKN065 14/04 Q1013 NOSIG
LEBL 261400Z 19010KT 160V220 9999 FEW020 16/08 Q1018 NOSIG
LEMD 261400Z 15011KT 9999 FEW035 BKN065 13/04 Q1013 NOSIG
Francia
LFPO 261430Z 09008KT 040V150 9999 FEW040 SCT260 17/07 Q1020 NOSIG
LFPO 261400Z 06006KT 030V100 9999 FEW040 SCT260 17/06 Q1020 NOSIG
Inglaterra
EGLL 261420Z AUTO 09014KT 9999 NCD 15/05 Q1023
Panamá
MPTO 261400Z 12003KT 9000 FEW018 SCT090 29/22 Q1014 NOSIG
Paraguay
SGAS 261400Z 01006KT 9999 FEW027 OVC080 24/21 Q1012
Venezuela
SVMI 261400Z 09003KT 9999 SCT016 29/20 Q1013

* Datos extraidos del Text DataServer de la NOAA (NOAA TEXT DATA SERVER)

Instituto Uruguayo de Meteorología

Dr. Javier Barrios Amorín 1488 - CP 11200
1895 int 108

Montevideo - Uruguay